sensor_id;sensor_type;location;lat;lon;timestamp;temperature;humidity
1405;DHT22;697;51.114;6.542;2023-03-08T00:00:10;3.90;99.90
1405;DHT22;697;51.114;6.542;2023-03-08T00:02:37;3.90;99.90
1405;DHT22;697;51.114;6.542;2023-03-08T00:05:05;3.90;99.90
1405;DHT22;697;51.114;6.542;2023-03-08T00:07:32;3.90;99.90
1405;DHT22;697;51.114;6.542;2023-03-08T00:09:59;3.90;99.90
1405;DHT22;697;51.114;6.542;2023-03-08T00:12:27;3.90;99.90
1405;DHT22;697;51.114;6.542;2023-03-08T00:14:55;3.90;99.90
1405;DHT22;697;51.114;6.542;2023-03-08T00:17:22;4.00;99.90
1405;DHT22;697;51.114;6.542;2023-03-08T00:19:50;3.90;99.90
1405;DHT22;697;51.114;6.542;2023-03-08T00:22:17;3.90;99.90
1405;DHT22;697;51.114;6.542;2023-03-08T00:24:44;3.90;99.90
1405;DHT22;697;51.114;6.542;2023-03-08T00:27:10;3.90;99.90
1405;DHT22;697;51.114;6.542;2023-03-08T00:29:37;3.90;99.90
1405;DHT22;697;51.114;6.542;2023-03-08T00:32:06;3.80;99.90
1405;DHT22;697;51.114;6.542;2023-03-08T00:34:32;3.80;99.90
1405;DHT22;697;51.114;6.542;2023-03-08T00:36:59;3.80;99.90
1405;DHT22;697;51.114;6.542;2023-03-08T00:39:26;3.80;99.90
1405;DHT22;697;51.114;6.542;2023-03-08T00:41:52;3.80;99.90
1405;DHT22;697;51.114;6.542;2023-03-08T00:44:19;3.80;99.90
1405;DHT22;697;51.114;6.542;2023-03-08T00:46:46;3.80;99.90
1405;DHT22;697;51.114;6.542;2023-03-08T00:49:14;3.80;99.90
1405;DHT22;697;51.114;6.542;2023-03-08T00:51:40;3.80;99.90
1405;DHT22;697;51.114;6.542;2023-03-08T00:54:07;3.90;99.90
1405;DHT22;697;51.114;6.542;2023-03-08T00:56:34;3.80;99.90
1405;DHT22;697;51.114;6.542;2023-03-08T00:59:00;3.80;99.90
1405;DHT22;697;51.114;6.542;2023-03-08T01:01:27;3.80;99.90
1405;DHT22;697;51.114;6.542;2023-03-08T01:03:53;3.90;99.90
1405;DHT22;697;51.114;6.542;2023-03-08T01:06:21;3.90;99.90
1405;DHT22;697;51.114;6.542;2023-03-08T01:08:48;3.80;99.90
1405;DHT22;697;51.114;6.542;2023-03-08T01:11:17;3.90;99.90
1405;DHT22;697;51.114;6.542;2023-03-08T01:13:43;3.80;99.90
1405;DHT22;697;51.114;6.542;2023-03-08T01:16:15;3.80;99.90
1405;DHT22;697;51.114;6.542;2023-03-08T01:18:42;3.90;99.90
1405;DHT22;697;51.114;6.542;2023-03-08T01:21:09;3.90;99.90
1405;DHT22;697;51.114;6.542;2023-03-08T01:23:38;3.90;99.90
1405;DHT22;697;51.114;6.542;2023-03-08T01:26:06;3.90;99.90
1405;DHT22;697;51.114;6.542;2023-03-08T01:28:34;3.90;99.90
1405;DHT22;697;51.114;6.542;2023-03-08T01:31:01;3.90;99.90
1405;DHT22;697;51.114;6.542;2023-03-08T01:33:28;3.90;99.90
1405;DHT22;697;51.114;6.542;2023-03-08T01:35:55;3.90;99.90
1405;DHT22;697;51.114;6.542;2023-03-08T01:38:22;3.90;99.90
1405;DHT22;697;51.114;6.542;2023-03-08T01:40:54;4.00;99.90
1405;DHT22;697;51.114;6.542;2023-03-08T01:43:22;3.90;99.90
1405;DHT22;697;51.114;6.542;2023-03-08T01:46:19;4.00;99.90
1405;DHT22;697;51.114;6.542;2023-03-08T01:48:49;3.90;99.90
1405;DHT22;697;51.114;6.542;2023-03-08T01:51:21;3.90;99.90
1405;DHT22;697;51.114;6.542;2023-03-08T01:53:50;3.90;99.90
1405;DHT22;697;51.114;6.542;2023-03-08T01:56:19;4.00;99.90
1405;DHT22;697;51.114;6.542;2023-03-08T01:58:49;4.00;99.90
1405;DHT22;697;51.114;6.542;2023-03-08T02:01:18;3.90;99.90
1405;DHT22;697;51.114;6.542;2023-03-08T02:03:45;3.90;99.90
1405;DHT22;697;51.114;6.542;2023-03-08T02:06:13;3.90;99.90
1405;DHT22;697;51.114;6.542;2023-03-08T02:08:41;3.90;99.90
1405;DHT22;697;51.114;6.542;2023-03-08T02:11:08;3.90;99.90
1405;DHT22;697;51.114;6.542;2023-03-08T02:13:36;3.90;99.90
1405;DHT22;697;51.114;6.542;2023-03-08T02:16:06;3.90;99.90
1405;DHT22;697;51.114;6.542;2023-03-08T02:18:33;3.90;99.90
1405;DHT22;697;51.114;6.542;2023-03-08T02:21:00;3.90;99.90
1405;DHT22;697;51.114;6.542;2023-03-08T02:23:28;3.90;99.90
1405;DHT22;697;51.114;6.542;2023-03-08T02:25:57;3.90;99.90
1405;DHT22;697;51.114;6.542;2023-03-08T02:28:25;3.90;99.90
1405;DHT22;697;51.114;6.542;2023-03-08T02:30:53;3.90;99.90
1405;DHT22;697;51.114;6.542;2023-03-08T02:33:20;3.90;99.90
1405;DHT22;697;51.114;6.542;2023-03-08T02:35:47;3.90;99.90
1405;DHT22;697;51.114;6.542;2023-03-08T02:38:16;3.90;99.90
1405;DHT22;697;51.114;6.542;2023-03-08T02:40:44;3.90;99.90
1405;DHT22;697;51.114;6.542;2023-03-08T02:43:11;3.90;99.90
1405;DHT22;697;51.114;6.542;2023-03-08T02:45:38;3.90;99.90
1405;DHT22;697;51.114;6.542;2023-03-08T02:48:06;3.90;99.90
1405;DHT22;697;51.114;6.542;2023-03-08T02:50:32;4.00;99.90
1405;DHT22;697;51.114;6.542;2023-03-08T02:53:00;3.90;99.90
1405;DHT22;697;51.114;6.542;2023-03-08T02:55:27;3.90;99.90
1405;DHT22;697;51.114;6.542;2023-03-08T02:57:55;3.80;99.90
1405;DHT22;697;51.114;6.542;2023-03-08T03:00:22;3.80;99.90
1405;DHT22;697;51.114;6.542;2023-03-08T03:02:49;3.80;99.90
1405;DHT22;697;51.114;6.542;2023-03-08T03:05:15;3.80;99.90
1405;DHT22;697;51.114;6.542;2023-03-08T03:07:42;3.80;99.90
1405;DHT22;697;51.114;6.542;2023-03-08T03:10:10;3.80;99.90
1405;DHT22;697;51.114;6.542;2023-03-08T03:12:37;3.80;99.90
1405;DHT22;697;51.114;6.542;2023-03-08T03:15:07;3.80;99.90
1405;DHT22;697;51.114;6.542;2023-03-08T03:17:34;3.70;99.90
1405;DHT22;697;51.114;6.542;2023-03-08T03:20:03;3.60;99.90
1405;DHT22;697;51.114;6.542;2023-03-08T03:22:31;3.60;99.90
1405;DHT22;697;51.114;6.542;2023-03-08T03:24:57;3.60;99.90
1405;DHT22;697;51.114;6.542;2023-03-08T03:27:24;3.60;99.90
1405;DHT22;697;51.114;6.542;2023-03-08T03:29:51;3.60;99.90
1405;DHT22;697;51.114;6.542;2023-03-08T03:32:19;3.60;99.90
1405;DHT22;697;51.114;6.542;2023-03-08T03:34:46;3.50;99.90
1405;DHT22;697;51.114;6.542;2023-03-08T03:37:13;3.50;99.90
1405;DHT22;697;51.114;6.542;2023-03-08T03:39:40;3.60;99.90
1405;DHT22;697;51.114;6.542;2023-03-08T03:42:07;3.60;99.90
1405;DHT22;697;51.114;6.542;2023-03-08T03:44:33;3.60;99.90
1405;DHT22;697;51.114;6.542;2023-03-08T03:47:00;3.60;99.90
1405;DHT22;697;51.114;6.542;2023-03-08T03:49:28;3.60;99.90
1405;DHT22;697;51.114;6.542;2023-03-08T03:51:55;3.60;99.90
1405;DHT22;697;51.114;6.542;2023-03-08T03:54:22;3.60;99.90
1405;DHT22;697;51.114;6.542;2023-03-08T03:56:49;3.60;99.90
1405;DHT22;697;51.114;6.542;2023-03-08T03:59:15;3.50;99.90
1405;DHT22;697;51.114;6.542;2023-03-08T04:01:42;3.50;99.90
1405;DHT22;697;51.114;6.542;2023-03-08T04:04:09;3.60;99.90
1405;DHT22;697;51.114;6.542;2023-03-08T04:06:38;3.60;99.90
1405;DHT22;697;51.114;6.542;2023-03-08T04:09:06;3.60;99.90
1405;DHT22;697;51.114;6.542;2023-03-08T04:11:34;3.60;99.90
1405;DHT22;697;51.114;6.542;2023-03-08T04:14:02;3.60;99.90
1405;DHT22;697;51.114;6.542;2023-03-08T04:16:30;3.60;99.90
1405;DHT22;697;51.114;6.542;2023-03-08T04:18:58;3.60;99.90
1405;DHT22;697;51.114;6.542;2023-03-08T04:21:25;3.60;99.90
1405;DHT22;697;51.114;6.542;2023-03-08T04:23:54;3.60;99.90
1405;DHT22;697;51.114;6.542;2023-03-08T04:26:21;3.70;99.90
1405;DHT22;697;51.114;6.542;2023-03-08T04:28:47;3.70;99.90
1405;DHT22;697;51.114;6.542;2023-03-08T04:31:15;3.80;99.90
1405;DHT22;697;51.114;6.542;2023-03-08T04:33:43;3.80;99.90
1405;DHT22;697;51.114;6.542;2023-03-08T04:36:10;3.80;99.90
1405;DHT22;697;51.114;6.542;2023-03-08T04:38:38;3.90;99.90
1405;DHT22;697;51.114;6.542;2023-03-08T04:41:06;3.90;99.90
1405;DHT22;697;51.114;6.542;2023-03-08T04:43:36;3.90;99.90
1405;DHT22;697;51.114;6.542;2023-03-08T04:46:04;3.90;99.90
1405;DHT22;697;51.114;6.542;2023-03-08T04:48:31;3.90;99.90
1405;DHT22;697;51.114;6.542;2023-03-08T04:50:59;4.00;99.90
1405;DHT22;697;51.114;6.542;2023-03-08T04:53:27;4.00;99.90
1405;DHT22;697;51.114;6.542;2023-03-08T04:55:54;4.00;99.90
1405;DHT22;697;51.114;6.542;2023-03-08T04:58:22;4.00;99.90
1405;DHT22;697;51.114;6.542;2023-03-08T05:00:49;4.00;99.90
1405;DHT22;697;51.114;6.542;2023-03-08T05:03:16;4.00;99.90
1405;DHT22;697;51.114;6.542;2023-03-08T05:05:47;4.00;99.90
1405;DHT22;697;51.114;6.542;2023-03-08T05:08:16;4.00;99.90
1405;DHT22;697;51.114;6.542;2023-03-08T05:10:46;4.00;99.90
1405;DHT22;697;51.114;6.542;2023-03-08T05:13:13;4.00;99.90
1405;DHT22;697;51.114;6.542;2023-03-08T05:15:41;4.00;99.90
1405;DHT22;697;51.114;6.542;2023-03-08T05:18:07;4.00;99.90
1405;DHT22;697;51.114;6.542;2023-03-08T05:20:34;4.00;99.90
1405;DHT22;697;51.114;6.542;2023-03-08T05:23:01;4.00;99.90
1405;DHT22;697;51.114;6.542;2023-03-08T05:25:27;4.00;99.90
1405;DHT22;697;51.114;6.542;2023-03-08T05:27:55;4.00;99.90
1405;DHT22;697;51.114;6.542;2023-03-08T05:30:22;4.00;99.90
1405;DHT22;697;51.114;6.542;2023-03-08T05:32:50;4.00;99.90
1405;DHT22;697;51.114;6.542;2023-03-08T05:35:16;4.00;99.90
1405;DHT22;697;51.114;6.542;2023-03-08T05:37:43;3.90;99.90
1405;DHT22;697;51.114;6.542;2023-03-08T05:40:11;4.00;99.90
1405;DHT22;697;51.114;6.542;2023-03-08T05:42:38;4.00;99.90
1405;DHT22;697;51.114;6.542;2023-03-08T05:45:05;4.00;99.90
1405;DHT22;697;51.114;6.542;2023-03-08T05:47:32;4.00;99.90
1405;DHT22;697;51.114;6.542;2023-03-08T05:50:00;4.00;99.90
1405;DHT22;697;51.114;6.542;2023-03-08T05:52:28;4.00;99.90
1405;DHT22;697;51.114;6.542;2023-03-08T05:54:55;4.00;99.90
1405;DHT22;697;51.114;6.542;2023-03-08T05:57:21;3.90;99.90
1405;DHT22;697;51.114;6.542;2023-03-08T05:59:48;3.90;99.90
1405;DHT22;697;51.114;6.542;2023-03-08T06:02:15;3.90;99.90
1405;DHT22;697;51.114;6.542;2023-03-08T06:04:42;3.90;99.90
1405;DHT22;697;51.114;6.542;2023-03-08T06:07:10;3.90;99.90
1405;DHT22;697;51.114;6.542;2023-03-08T06:09:36;3.90;99.90
1405;DHT22;697;51.114;6.542;2023-03-08T06:12:03;3.90;99.90
1405;DHT22;697;51.114;6.542;2023-03-08T06:14:30;3.90;99.90
1405;DHT22;697;51.114;6.542;2023-03-08T06:16:57;3.90;99.90
1405;DHT22;697;51.114;6.542;2023-03-08T06:19:24;3.90;99.90
1405;DHT22;697;51.114;6.542;2023-03-08T06:21:50;3.90;99.90
1405;DHT22;697;51.114;6.542;2023-03-08T06:24:18;3.90;99.90
1405;DHT22;697;51.114;6.542;2023-03-08T06:26:45;3.90;99.90
1405;DHT22;697;51.114;6.542;2023-03-08T06:29:12;3.90;99.90
1405;DHT22;697;51.114;6.542;2023-03-08T06:31:39;3.80;99.90
1405;DHT22;697;51.114;6.542;2023-03-08T06:34:05;3.90;99.90
1405;DHT22;697;51.114;6.542;2023-03-08T06:36:32;3.80;99.90
1405;DHT22;697;51.114;6.542;2023-03-08T06:38:59;3.90;99.90
1405;DHT22;697;51.114;6.542;2023-03-08T06:41:27;3.90;99.90
1405;DHT22;697;51.114;6.542;2023-03-08T06:43:54;3.80;99.90
1405;DHT22;697;51.114;6.542;2023-03-08T06:46:21;3.80;99.90
1405;DHT22;697;51.114;6.542;2023-03-08T06:48:48;3.80;99.90
1405;DHT22;697;51.114;6.542;2023-03-08T06:51:15;3.90;99.90
1405;DHT22;697;51.114;6.542;2023-03-08T06:53:42;3.90;99.90
1405;DHT22;697;51.114;6.542;2023-03-08T06:56:12;3.90;99.90
1405;DHT22;697;51.114;6.542;2023-03-08T06:58:40;3.90;99.90
1405;DHT22;697;51.114;6.542;2023-03-08T07:01:07;3.90;99.90
1405;DHT22;697;51.114;6.542;2023-03-08T07:03:35;3.90;99.90
1405;DHT22;697;51.114;6.542;2023-03-08T07:06:04;3.90;99.90
1405;DHT22;697;51.114;6.542;2023-03-08T07:08:32;3.90;99.90
1405;DHT22;697;51.114;6.542;2023-03-08T07:10:59;3.90;99.90
1405;DHT22;697;51.114;6.542;2023-03-08T07:13:26;3.90;99.90
1405;DHT22;697;51.114;6.542;2023-03-08T07:15:56;3.90;99.90
1405;DHT22;697;51.114;6.542;2023-03-08T07:18:22;3.90;99.90
1405;DHT22;697;51.114;6.542;2023-03-08T07:20:51;3.90;99.90
1405;DHT22;697;51.114;6.542;2023-03-08T07:23:18;3.90;99.90
1405;DHT22;697;51.114;6.542;2023-03-08T07:25:44;3.90;99.90
1405;DHT22;697;51.114;6.542;2023-03-08T07:28:11;3.90;99.90
1405;DHT22;697;51.114;6.542;2023-03-08T07:30:38;3.90;99.90
1405;DHT22;697;51.114;6.542;2023-03-08T07:33:06;3.90;99.90
1405;DHT22;697;51.114;6.542;2023-03-08T07:35:33;3.90;99.90
1405;DHT22;697;51.114;6.542;2023-03-08T07:37:59;3.90;99.90
1405;DHT22;697;51.114;6.542;2023-03-08T07:40:26;3.90;99.90
1405;DHT22;697;51.114;6.542;2023-03-08T07:42:52;3.90;99.90
1405;DHT22;697;51.114;6.542;2023-03-08T07:45:21;3.90;99.90
1405;DHT22;697;51.114;6.542;2023-03-08T07:47:49;3.90;99.90
1405;DHT22;697;51.114;6.542;2023-03-08T07:50:18;3.90;99.90
1405;DHT22;697;51.114;6.542;2023-03-08T07:52:45;3.90;99.90
1405;DHT22;697;51.114;6.542;2023-03-08T07:55:12;3.90;99.90
1405;DHT22;697;51.114;6.542;2023-03-08T07:57:39;3.90;99.90
1405;DHT22;697;51.114;6.542;2023-03-08T08:00:07;3.90;99.90
1405;DHT22;697;51.114;6.542;2023-03-08T08:02:34;3.90;99.90
1405;DHT22;697;51.114;6.542;2023-03-08T08:05:01;3.90;99.90
1405;DHT22;697;51.114;6.542;2023-03-08T08:07:30;3.90;99.90
1405;DHT22;697;51.114;6.542;2023-03-08T08:09:56;3.90;99.90
1405;DHT22;697;51.114;6.542;2023-03-08T08:12:23;4.00;99.90
1405;DHT22;697;51.114;6.542;2023-03-08T08:14:50;3.90;99.90
1405;DHT22;697;51.114;6.542;2023-03-08T08:17:17;3.90;99.90
1405;DHT22;697;51.114;6.542;2023-03-08T08:19:44;4.00;99.90
1405;DHT22;697;51.114;6.542;2023-03-08T08:22:11;4.00;99.90
1405;DHT22;697;51.114;6.542;2023-03-08T08:24:39;3.90;99.90
1405;DHT22;697;51.114;6.542;2023-03-08T08:27:06;3.90;99.90
1405;DHT22;697;51.114;6.542;2023-03-08T08:29:32;4.00;99.90
1405;DHT22;697;51.114;6.542;2023-03-08T08:31:59;4.00;99.90
1405;DHT22;697;51.114;6.542;2023-03-08T08:34:26;4.00;99.90
1405;DHT22;697;51.114;6.542;2023-03-08T08:36:52;4.00;99.90
1405;DHT22;697;51.114;6.542;2023-03-08T08:39:19;4.00;99.90
1405;DHT22;697;51.114;6.542;2023-03-08T08:41:48;4.00;99.90
1405;DHT22;697;51.114;6.542;2023-03-08T08:44:15;4.00;99.90
1405;DHT22;697;51.114;6.542;2023-03-08T08:46:42;4.00;99.90
1405;DHT22;697;51.114;6.542;2023-03-08T08:49:09;4.00;99.90
1405;DHT22;697;51.114;6.542;2023-03-08T08:51:36;4.00;99.90
1405;DHT22;697;51.114;6.542;2023-03-08T08:54:02;4.00;99.90
1405;DHT22;697;51.114;6.542;2023-03-08T08:56:29;4.10;99.90
1405;DHT22;697;51.114;6.542;2023-03-08T08:58:59;4.10;99.90
1405;DHT22;697;51.114;6.542;2023-03-08T09:01:28;4.10;99.90
1405;DHT22;697;51.114;6.542;2023-03-08T09:03:55;4.10;99.90
1405;DHT22;697;51.114;6.542;2023-03-08T09:06:23;4.10;99.90
1405;DHT22;697;51.114;6.542;2023-03-08T09:08:51;4.20;99.90
1405;DHT22;697;51.114;6.542;2023-03-08T09:11:19;4.20;99.90
1405;DHT22;697;51.114;6.542;2023-03-08T09:13:46;4.10;99.90
1405;DHT22;697;51.114;6.542;2023-03-08T09:16:20;4.20;99.90
1405;DHT22;697;51.114;6.542;2023-03-08T09:18:47;4.20;99.90
1405;DHT22;697;51.114;6.542;2023-03-08T09:21:14;4.20;99.90
1405;DHT22;697;51.114;6.542;2023-03-08T09:23:41;4.20;99.90
1405;DHT22;697;51.114;6.542;2023-03-08T09:26:08;4.20;99.90
1405;DHT22;697;51.114;6.542;2023-03-08T09:28:35;4.30;99.90
1405;DHT22;697;51.114;6.542;2023-03-08T09:31:05;4.30;99.90
1405;DHT22;697;51.114;6.542;2023-03-08T09:33:38;4.30;99.90
1405;DHT22;697;51.114;6.542;2023-03-08T09:36:05;4.40;99.90
1405;DHT22;697;51.114;6.542;2023-03-08T09:38:31;4.40;99.90
1405;DHT22;697;51.114;6.542;2023-03-08T09:41:09;4.40;99.90
1405;DHT22;697;51.114;6.542;2023-03-08T09:43:45;4.50;99.90
1405;DHT22;697;51.114;6.542;2023-03-08T09:46:14;4.50;99.90
1405;DHT22;697;51.114;6.542;2023-03-08T09:48:46;4.50;99.90
1405;DHT22;697;51.114;6.542;2023-03-08T09:51:17;4.50;99.90
1405;DHT22;697;51.114;6.542;2023-03-08T09:53:49;4.50;99.90
1405;DHT22;697;51.114;6.542;2023-03-08T09:56:26;4.50;99.90
1405;DHT22;697;51.114;6.542;2023-03-08T09:58:57;4.50;99.90
1405;DHT22;697;51.114;6.542;2023-03-08T10:01:33;4.60;99.90
1405;DHT22;697;51.114;6.542;2023-03-08T10:04:25;4.60;99.90
1405;DHT22;697;51.114;6.542;2023-03-08T10:07:09;4.60;99.90
1405;DHT22;697;51.114;6.542;2023-03-08T10:09:45;4.60;99.90
1405;DHT22;697;51.114;6.542;2023-03-08T10:12:19;4.60;99.90
1405;DHT22;697;51.114;6.542;2023-03-08T10:14:50;4.60;99.90
1405;DHT22;697;51.114;6.542;2023-03-08T10:17:20;4.60;99.90
1405;DHT22;697;51.114;6.542;2023-03-08T10:19:53;4.70;99.90
1405;DHT22;697;51.114;6.542;2023-03-08T10:22:25;4.70;99.90
1405;DHT22;697;51.114;6.542;2023-03-08T10:24:57;4.70;99.90
1405;DHT22;697;51.114;6.542;2023-03-08T10:27:27;4.70;99.90
1405;DHT22;697;51.114;6.542;2023-03-08T10:29:56;4.70;99.90
1405;DHT22;697;51.114;6.542;2023-03-08T10:32:24;4.80;99.90
1405;DHT22;697;51.114;6.542;2023-03-08T10:34:52;4.80;99.90
1405;DHT22;697;51.114;6.542;2023-03-08T10:37:30;4.80;99.90
1405;DHT22;697;51.114;6.542;2023-03-08T10:40:00;4.80;99.90
1405;DHT22;697;51.114;6.542;2023-03-08T10:42:30;4.80;99.90
1405;DHT22;697;51.114;6.542;2023-03-08T10:44:59;4.90;99.90
1405;DHT22;697;51.114;6.542;2023-03-08T10:47:30;4.90;99.90
1405;DHT22;697;51.114;6.542;2023-03-08T10:50:13;4.90;99.90
1405;DHT22;697;51.114;6.542;2023-03-08T10:52:41;5.00;99.90
1405;DHT22;697;51.114;6.542;2023-03-08T10:55:11;5.10;99.90
1405;DHT22;697;51.114;6.542;2023-03-08T10:57:39;5.10;99.90
1405;DHT22;697;51.114;6.542;2023-03-08T11:00:30;5.20;99.90
1405;DHT22;697;51.114;6.542;2023-03-08T11:03:12;5.20;99.90
1405;DHT22;697;51.114;6.542;2023-03-08T11:05:50;5.30;99.90
1405;DHT22;697;51.114;6.542;2023-03-08T11:08:19;5.30;99.90
1405;DHT22;697;51.114;6.542;2023-03-08T11:10:46;5.30;99.90
1405;DHT22;697;51.114;6.542;2023-03-08T11:13:22;5.40;99.90
1405;DHT22;697;51.114;6.542;2023-03-08T11:15:55;5.40;99.90
1405;DHT22;697;51.114;6.542;2023-03-08T11:18:31;5.50;99.90
1405;DHT22;697;51.114;6.542;2023-03-08T11:21:05;5.50;99.90
1405;DHT22;697;51.114;6.542;2023-03-08T11:23:38;5.60;99.90
1405;DHT22;697;51.114;6.542;2023-03-08T11:26:14;5.60;99.90
1405;DHT22;697;51.114;6.542;2023-03-08T11:28:53;5.60;99.90
1405;DHT22;697;51.114;6.542;2023-03-08T11:31:26;5.70;99.90
1405;DHT22;697;51.114;6.542;2023-03-08T11:34:16;5.70;99.90
1405;DHT22;697;51.114;6.542;2023-03-08T11:36:52;5.70;99.90
1405;DHT22;697;51.114;6.542;2023-03-08T11:39:25;5.70;99.90
1405;DHT22;697;51.114;6.542;2023-03-08T11:41:59;5.70;99.90
1405;DHT22;697;51.114;6.542;2023-03-08T11:44:38;5.70;99.90
1405;DHT22;697;51.114;6.542;2023-03-08T11:47:33;5.70;99.90
1405;DHT22;697;51.114;6.542;2023-03-08T11:50:08;5.70;99.90
1405;DHT22;697;51.114;6.542;2023-03-08T11:52:44;5.80;99.90
1405;DHT22;697;51.114;6.542;2023-03-08T11:55:36;5.80;99.90
1405;DHT22;697;51.114;6.542;2023-03-08T11:58:10;5.80;99.90
1405;DHT22;697;51.114;6.542;2023-03-08T12:00:41;5.80;99.90
1405;DHT22;697;51.114;6.542;2023-03-08T12:03:12;5.90;99.90
1405;DHT22;697;51.114;6.542;2023-03-08T12:05:44;5.90;99.90
1405;DHT22;697;51.114;6.542;2023-03-08T12:08:16;5.90;99.90
1405;DHT22;697;51.114;6.542;2023-03-08T12:10:47;6.00;99.90
1405;DHT22;697;51.114;6.542;2023-03-08T12:13:19;6.00;99.90
1405;DHT22;697;51.114;6.542;2023-03-08T12:15:50;6.10;99.90
1405;DHT22;697;51.114;6.542;2023-03-08T12:18:23;6.10;99.90
1405;DHT22;697;51.114;6.542;2023-03-08T12:20:58;6.10;99.90
1405;DHT22;697;51.114;6.542;2023-03-08T12:23:31;6.20;99.90
1405;DHT22;697;51.114;6.542;2023-03-08T12:26:04;6.20;99.90
1405;DHT22;697;51.114;6.542;2023-03-08T12:28:35;6.30;99.90
1405;DHT22;697;51.114;6.542;2023-03-08T12:31:16;6.30;99.90
1405;DHT22;697;51.114;6.542;2023-03-08T12:33:46;6.40;99.90
1405;DHT22;697;51.114;6.542;2023-03-08T12:36:13;6.40;99.90
1405;DHT22;697;51.114;6.542;2023-03-08T12:38:44;6.40;99.90
1405;DHT22;697;51.114;6.542;2023-03-08T12:41:22;6.50;99.90
1405;DHT22;697;51.114;6.542;2023-03-08T12:43:58;6.40;99.90
1405;DHT22;697;51.114;6.542;2023-03-08T12:46:25;6.40;99.90
1405;DHT22;697;51.114;6.542;2023-03-08T12:48:53;6.40;99.90
1405;DHT22;697;51.114;6.542;2023-03-08T12:51:21;6.40;99.90
1405;DHT22;697;51.114;6.542;2023-03-08T12:54:00;6.40;99.90
1405;DHT22;697;51.114;6.542;2023-03-08T12:56:30;6.40;99.90
1405;DHT22;697;51.114;6.542;2023-03-08T12:58:59;6.30;99.90
1405;DHT22;697;51.114;6.542;2023-03-08T13:01:30;6.30;99.90
1405;DHT22;697;51.114;6.542;2023-03-08T13:03:58;6.30;99.90
1405;DHT22;697;51.114;6.542;2023-03-08T13:07:00;6.30;99.90
1405;DHT22;697;51.114;6.542;2023-03-08T13:09:34;6.30;99.90
1405;DHT22;697;51.114;6.542;2023-03-08T13:12:16;6.30;99.90
1405;DHT22;697;51.114;6.542;2023-03-08T13:14:46;6.40;99.90
1405;DHT22;697;51.114;6.542;2023-03-08T13:17:35;6.40;99.90
1405;DHT22;697;51.114;6.542;2023-03-08T13:20:11;6.40;99.90
1405;DHT22;697;51.114;6.542;2023-03-08T13:22:47;6.40;99.90
1405;DHT22;697;51.114;6.542;2023-03-08T13:25:23;6.40;99.90
1405;DHT22;697;51.114;6.542;2023-03-08T13:27:57;6.30;99.90
1405;DHT22;697;51.114;6.542;2023-03-08T13:30:28;6.30;99.90
1405;DHT22;697;51.114;6.542;2023-03-08T13:32:57;6.30;99.90
1405;DHT22;697;51.114;6.542;2023-03-08T13:35:25;6.30;99.90
1405;DHT22;697;51.114;6.542;2023-03-08T13:37:53;6.30;99.90
1405;DHT22;697;51.114;6.542;2023-03-08T13:40:22;6.30;99.90
1405;DHT22;697;51.114;6.542;2023-03-08T13:42:54;6.30;99.90
1405;DHT22;697;51.114;6.542;2023-03-08T13:45:21;6.30;99.90
1405;DHT22;697;51.114;6.542;2023-03-08T13:47:48;6.30;99.90
1405;DHT22;697;51.114;6.542;2023-03-08T13:50:20;6.30;99.90
1405;DHT22;697;51.114;6.542;2023-03-08T13:52:49;6.20;99.90
1405;DHT22;697;51.114;6.542;2023-03-08T13:55:19;6.20;99.90
1405;DHT22;697;51.114;6.542;2023-03-08T13:57:50;6.20;99.90
1405;DHT22;697;51.114;6.542;2023-03-08T14:00:28;6.20;99.90
1405;DHT22;697;51.114;6.542;2023-03-08T14:02:55;6.10;99.90
1405;DHT22;697;51.114;6.542;2023-03-08T14:05:24;6.10;99.90
1405;DHT22;697;51.114;6.542;2023-03-08T14:07:56;6.10;99.90
1405;DHT22;697;51.114;6.542;2023-03-08T14:10:27;6.00;99.90
1405;DHT22;697;51.114;6.542;2023-03-08T14:12:56;6.00;99.90
1405;DHT22;697;51.114;6.542;2023-03-08T14:15:24;5.90;99.90
1405;DHT22;697;51.114;6.542;2023-03-08T14:17:51;5.90;99.90
1405;DHT22;697;51.114;6.542;2023-03-08T14:20:19;5.90;99.90
1405;DHT22;697;51.114;6.542;2023-03-08T14:22:48;5.90;99.90
1405;DHT22;697;51.114;6.542;2023-03-08T14:25:24;5.90;99.90
1405;DHT22;697;51.114;6.542;2023-03-08T14:27:51;5.80;99.90
1405;DHT22;697;51.114;6.542;2023-03-08T14:30:21;5.80;99.90
1405;DHT22;697;51.114;6.542;2023-03-08T14:32:57;5.80;99.90
1405;DHT22;697;51.114;6.542;2023-03-08T14:35:25;5.80;99.90
1405;DHT22;697;51.114;6.542;2023-03-08T14:37:52;5.80;99.90
1405;DHT22;697;51.114;6.542;2023-03-08T14:40:27;5.80;99.90
1405;DHT22;697;51.114;6.542;2023-03-08T14:42:55;5.70;99.90
1405;DHT22;697;51.114;6.542;2023-03-08T14:45:25;5.70;99.90
1405;DHT22;697;51.114;6.542;2023-03-08T14:47:55;5.70;99.90
1405;DHT22;697;51.114;6.542;2023-03-08T14:50:24;5.70;99.90
1405;DHT22;697;51.114;6.542;2023-03-08T14:52:53;5.70;99.90
1405;DHT22;697;51.114;6.542;2023-03-08T14:55:22;5.70;99.90
1405;DHT22;697;51.114;6.542;2023-03-08T14:57:51;5.70;99.90
1405;DHT22;697;51.114;6.542;2023-03-08T15:00:20;5.70;99.90
1405;DHT22;697;51.114;6.542;2023-03-08T15:02:48;5.70;99.90
1405;DHT22;697;51.114;6.542;2023-03-08T15:05:16;5.60;99.90
1405;DHT22;697;51.114;6.542;2023-03-08T15:07:44;5.60;99.90
1405;DHT22;697;51.114;6.542;2023-03-08T15:10:18;5.60;99.90
1405;DHT22;697;51.114;6.542;2023-03-08T15:12:46;5.60;99.90
1405;DHT22;697;51.114;6.542;2023-03-08T15:15:14;5.60;99.90
1405;DHT22;697;51.114;6.542;2023-03-08T15:17:41;5.60;99.90
1405;DHT22;697;51.114;6.542;2023-03-08T15:20:12;5.70;99.90
1405;DHT22;697;51.114;6.542;2023-03-08T15:22:41;5.70;99.90
1405;DHT22;697;51.114;6.542;2023-03-08T15:25:12;5.70;99.90
1405;DHT22;697;51.114;6.542;2023-03-08T15:27:39;5.70;99.90
1405;DHT22;697;51.114;6.542;2023-03-08T15:30:13;5.70;99.90
1405;DHT22;697;51.114;6.542;2023-03-08T15:32:40;5.70;99.90
1405;DHT22;697;51.114;6.542;2023-03-08T15:35:07;5.70;99.90
1405;DHT22;697;51.114;6.542;2023-03-08T15:37:35;5.70;99.90
1405;DHT22;697;51.114;6.542;2023-03-08T15:40:03;5.70;99.90
1405;DHT22;697;51.114;6.542;2023-03-08T15:42:31;5.70;99.90
1405;DHT22;697;51.114;6.542;2023-03-08T15:44:58;5.70;99.90
1405;DHT22;697;51.114;6.542;2023-03-08T15:47:25;5.70;99.90
1405;DHT22;697;51.114;6.542;2023-03-08T15:49:52;5.70;99.90
1405;DHT22;697;51.114;6.542;2023-03-08T15:52:18;5.70;99.90
1405;DHT22;697;51.114;6.542;2023-03-08T15:54:49;5.70;99.90
1405;DHT22;697;51.114;6.542;2023-03-08T15:57:15;5.70;99.90
1405;DHT22;697;51.114;6.542;2023-03-08T15:59:42;5.60;99.90
1405;DHT22;697;51.114;6.542;2023-03-08T16:02:13;5.60;99.90
1405;DHT22;697;51.114;6.542;2023-03-08T16:04:40;5.60;99.90
1405;DHT22;697;51.114;6.542;2023-03-08T16:07:10;5.60;99.90
1405;DHT22;697;51.114;6.542;2023-03-08T16:09:38;5.60;99.90
1405;DHT22;697;51.114;6.542;2023-03-08T16:12:06;5.50;99.90
1405;DHT22;697;51.114;6.542;2023-03-08T16:14:34;5.50;99.90
1405;DHT22;697;51.114;6.542;2023-03-08T16:17:01;5.50;99.90
1405;DHT22;697;51.114;6.542;2023-03-08T16:19:30;5.50;99.90
1405;DHT22;697;51.114;6.542;2023-03-08T16:21:57;5.50;99.90
1405;DHT22;697;51.114;6.542;2023-03-08T16:24:24;5.50;99.90
1405;DHT22;697;51.114;6.542;2023-03-08T16:26:50;5.50;99.90
1405;DHT22;697;51.114;6.542;2023-03-08T16:29:18;5.50;99.90
1405;DHT22;697;51.114;6.542;2023-03-08T16:31:45;5.40;99.90
1405;DHT22;697;51.114;6.542;2023-03-08T16:34:12;5.40;99.90
1405;DHT22;697;51.114;6.542;2023-03-08T16:36:39;5.40;99.90
1405;DHT22;697;51.114;6.542;2023-03-08T16:39:06;5.40;99.90
1405;DHT22;697;51.114;6.542;2023-03-08T16:41:32;5.40;99.90
1405;DHT22;697;51.114;6.542;2023-03-08T16:43:59;5.40;99.90
1405;DHT22;697;51.114;6.542;2023-03-08T16:46:27;5.40;99.90